createdAt,value
2023-12-21T00:01:34.933Z,3.44
2023-12-21T00:04:04.076Z,3.44
2023-12-21T00:06:32.144Z,3.44
2023-12-21T00:09:01.512Z,3.53
2023-12-21T00:11:29.556Z,3.52
2023-12-21T00:13:57.518Z,3.37
2023-12-21T00:16:25.525Z,3.42
2023-12-21T00:18:53.596Z,3.60
2023-12-21T00:21:21.658Z,3.52
2023-12-21T00:23:49.554Z,3.44
2023-12-21T00:26:19.017Z,3.38
2023-12-21T00:28:47.014Z,3.52
2023-12-21T00:31:15.227Z,3.40
2023-12-21T00:33:43.254Z,3.46
2023-12-21T00:36:18.007Z,3.51
2023-12-21T00:38:45.951Z,3.68
2023-12-21T00:41:13.926Z,3.54
2023-12-21T00:43:43.201Z,3.60
2023-12-21T00:46:11.187Z,3.73
2023-12-21T00:48:39.183Z,3.59
2023-12-21T00:51:08.433Z,3.53
2023-12-21T00:53:36.314Z,3.59
2023-12-21T00:56:04.296Z,3.47
2023-12-21T00:58:32.283Z,3.47
2023-12-21T01:01:01.742Z,3.50
2023-12-21T01:03:29.888Z,3.57
2023-12-21T01:05:57.982Z,3.54
2023-12-21T01:08:25.940Z,3.42
2023-12-21T01:10:53.901Z,3.30
2023-12-21T01:13:21.866Z,3.47
2023-12-21T01:15:49.776Z,3.31
2023-12-21T01:18:19.338Z,3.28
2023-12-21T01:20:50.155Z,3.27
2023-12-21T01:23:18.776Z,3.25
2023-12-21T01:25:46.786Z,3.10
2023-12-21T01:28:14.724Z,3.14
2023-12-21T01:30:42.773Z,3.16
2023-12-21T01:33:10.855Z,3.13
2023-12-21T01:35:40.291Z,3.15
2023-12-21T01:38:08.192Z,3.20
2023-12-21T01:40:36.243Z,3.08
2023-12-21T01:43:04.368Z,3.02
2023-12-21T01:45:32.722Z,3.00
2023-12-21T01:48:01.103Z,2.97
2023-12-21T01:50:29.223Z,3.05
2023-12-21T01:53:01.727Z,2.95
2023-12-21T01:55:30.051Z,2.85
2023-12-21T01:57:59.743Z,2.85
2023-12-21T02:00:27.842Z,2.96
2023-12-21T02:02:56.158Z,2.86
2023-12-21T02:05:24.276Z,2.84
2023-12-21T02:07:52.387Z,2.81
2023-12-21T02:10:21.774Z,2.94
2023-12-21T02:12:50.153Z,2.93
2023-12-21T02:15:18.353Z,2.82
2023-12-21T02:17:50.666Z,2.79
2023-12-21T02:20:20.384Z,2.90
2023-12-21T02:22:51.530Z,2.94
2023-12-21T02:25:21.525Z,3.01
2023-12-21T02:27:51.288Z,2.96
2023-12-21T02:30:19.968Z,2.97
2023-12-21T02:32:48.366Z,3.00
2023-12-21T02:35:17.111Z,2.98
2023-12-21T02:37:45.110Z,3.00
2023-12-21T02:40:14.187Z,2.88
2023-12-21T02:42:43.597Z,3.05
2023-12-21T02:45:11.835Z,2.90
2023-12-21T02:47:39.816Z,3.00
2023-12-21T02:50:09.135Z,3.15
2023-12-21T02:52:37.361Z,2.94
2023-12-21T02:55:05.741Z,2.87
2023-12-21T02:57:33.756Z,3.11
2023-12-21T03:00:03.263Z,2.95
2023-12-21T03:02:31.223Z,3.02
2023-12-21T03:04:59.210Z,3.04
2023-12-21T03:07:27.213Z,2.99
2023-12-21T03:09:55.164Z,3.02
2023-12-21T03:12:23.873Z,2.92
2023-12-21T03:14:51.789Z,2.96
2023-12-21T03:17:21.105Z,3.05
2023-12-21T03:19:49.211Z,3.00
2023-12-21T03:22:17.302Z,2.93
2023-12-21T03:24:46.251Z,3.08
2023-12-21T03:27:15.377Z,3.19
2023-12-21T03:29:43.562Z,3.17
2023-12-21T03:32:11.601Z,3.17
2023-12-21T03:34:41.528Z,3.07
2023-12-21T03:37:09.613Z,3.20
2023-12-21T03:39:37.556Z,3.15
2023-12-21T03:42:06.255Z,3.31
2023-12-21T03:44:34.190Z,3.13
2023-12-21T03:47:02.509Z,3.27
2023-12-21T03:49:30.920Z,3.12
2023-12-21T03:52:01.066Z,3.12
2023-12-21T03:54:29.040Z,3.15
2023-12-21T03:56:57.004Z,3.13
2023-12-21T03:59:24.962Z,3.20
2023-12-21T04:01:53.640Z,3.20
2023-12-21T04:04:21.615Z,3.17
2023-12-21T04:06:49.550Z,3.22
2023-12-21T04:09:18.816Z,3.16
2023-12-21T04:11:46.788Z,3.30
2023-12-21T04:14:14.705Z,3.20
2023-12-21T04:16:42.730Z,3.32
2023-12-21T04:19:10.895Z,3.26
2023-12-21T04:21:38.926Z,3.42
2023-12-21T04:24:08.550Z,3.29
2023-12-21T04:26:38.382Z,3.20
2023-12-21T04:29:06.306Z,3.43
2023-12-21T04:31:34.425Z,3.44
2023-12-21T04:34:02.636Z,3.37
2023-12-21T04:36:30.713Z,3.46
2023-12-21T04:38:58.685Z,3.41
2023-12-21T04:41:26.616Z,3.46
2023-12-21T04:43:55.912Z,3.43
2023-12-21T04:46:24.003Z,3.36
2023-12-21T04:48:52.037Z,3.25
2023-12-21T04:51:20.448Z,3.29
2023-12-21T04:53:48.396Z,3.19
2023-12-21T04:56:16.824Z,3.30
2023-12-21T04:58:52.228Z,3.38
2023-12-21T05:01:21.815Z,3.29
2023-12-21T05:03:49.830Z,3.29
2023-12-21T05:06:17.915Z,3.31
2023-12-21T05:08:45.897Z,3.32
2023-12-21T05:11:13.925Z,3.28
2023-12-21T05:13:42.184Z,3.44
2023-12-21T05:16:10.282Z,3.40
2023-12-21T05:18:39.860Z,3.51
2023-12-21T05:21:09.569Z,3.58
2023-12-21T05:23:37.738Z,3.50
2023-12-21T05:26:13.109Z,3.49
2023-12-21T05:28:43.178Z,3.64
2023-12-21T05:31:12.040Z,3.68
2023-12-21T05:33:41.512Z,3.53
2023-12-21T05:36:09.641Z,3.59
2023-12-21T05:38:39.166Z,3.62
2023-12-21T05:41:07.144Z,3.65
2023-12-21T05:43:35.124Z,3.68
2023-12-21T05:46:03.115Z,3.79
2023-12-21T05:48:31.213Z,3.58
2023-12-21T05:51:00.738Z,3.54
2023-12-21T05:53:31.292Z,3.64
2023-12-21T05:55:59.239Z,3.67
2023-12-21T05:58:27.484Z,3.65
2023-12-21T06:00:55.744Z,3.58
2023-12-21T06:03:24.675Z,3.66
2023-12-21T06:05:53.098Z,3.57
2023-12-21T06:08:22.386Z,3.69
2023-12-21T06:10:50.446Z,3.69
2023-12-21T06:13:18.440Z,3.60
2023-12-21T06:15:49.130Z,3.76
2023-12-21T06:18:17.151Z,3.79
2023-12-21T06:20:45.146Z,3.71
2023-12-21T06:23:13.093Z,3.82
2023-12-21T06:25:44.957Z,3.86
2023-12-21T06:28:13.026Z,3.92
2023-12-21T06:30:41.018Z,3.82
2023-12-21T06:33:09.109Z,3.82
2023-12-21T06:35:37.967Z,3.77
2023-12-21T06:38:07.748Z,3.81
2023-12-21T06:40:35.752Z,3.86
2023-12-21T06:43:05.400Z,3.90
2023-12-21T06:45:33.413Z,3.78
2023-12-21T06:48:01.952Z,3.85
2023-12-21T06:50:32.582Z,3.77
2023-12-21T06:53:04.493Z,3.84
2023-12-21T06:55:32.494Z,3.93
2023-12-21T06:58:00.492Z,3.81
2023-12-21T07:00:30.123Z,3.87
2023-12-21T07:02:58.191Z,3.95
2023-12-21T07:05:26.350Z,4.01
2023-12-21T07:07:55.198Z,4.07
2023-12-21T07:10:23.273Z,3.93
2023-12-21T07:12:51.227Z,4.04
2023-12-21T07:15:20.059Z,4.05
2023-12-21T07:17:49.499Z,4.13
2023-12-21T07:20:21.507Z,4.17
2023-12-21T07:22:53.583Z,4.10
2023-12-21T07:25:21.584Z,4.20
2023-12-21T07:27:49.572Z,4.06
2023-12-21T07:30:17.923Z,4.15
2023-12-21T07:32:46.102Z,4.27
2023-12-21T07:35:16.424Z,4.22
2023-12-21T07:37:44.500Z,4.25
2023-12-21T07:40:13.858Z,4.30
2023-12-21T07:42:41.833Z,4.17
2023-12-21T07:45:10.585Z,4.21
2023-12-21T07:47:40.909Z,4.39
2023-12-21T07:50:09.741Z,4.42
2023-12-21T07:52:39.203Z,4.24
2023-12-21T07:55:08.491Z,4.36
2023-12-21T07:57:36.509Z,4.46
2023-12-21T08:00:05.743Z,4.53
2023-12-21T08:02:33.623Z,4.49
2023-12-21T08:05:01.619Z,4.50
2023-12-21T08:07:29.627Z,4.40
2023-12-21T08:10:03.071Z,4.43
2023-12-21T08:12:31.226Z,4.32
2023-12-21T08:14:58.173Z,4.41
2023-12-21T08:17:26.161Z,4.40
2023-12-21T08:19:54.242Z,4.42
2023-12-21T08:22:23.916Z,4.41
2023-12-21T08:24:52.634Z,4.35
2023-12-21T08:27:22.644Z,4.37
2023-12-21T08:29:50.645Z,4.42
2023-12-21T08:32:19.474Z,4.36
2023-12-21T08:34:47.512Z,4.48
2023-12-21T08:37:15.509Z,4.57
2023-12-21T08:39:43.497Z,4.43
2023-12-21T08:42:11.471Z,4.46
2023-12-21T08:44:40.840Z,4.38
2023-12-21T08:47:11.849Z,4.47
2023-12-21T08:49:39.914Z,4.55
2023-12-21T08:52:08.202Z,4.62
2023-12-21T08:54:36.182Z,4.56
2023-12-21T08:57:04.783Z,4.40
2023-12-21T08:59:32.751Z,4.37
2023-12-21T09:02:02.433Z,4.49
2023-12-21T09:04:30.453Z,4.43
2023-12-21T09:06:58.600Z,4.49
2023-12-21T09:09:26.594Z,4.44
2023-12-21T09:11:54.516Z,4.43
2023-12-21T09:14:23.731Z,4.49
2023-12-21T09:16:52.762Z,4.61
2023-12-21T09:19:22.440Z,4.41
2023-12-21T09:21:50.476Z,4.68
2023-12-21T09:24:18.452Z,4.60
2023-12-21T09:26:46.364Z,4.63
2023-12-21T09:29:14.315Z,4.54
2023-12-21T09:31:45.046Z,4.66
2023-12-21T09:34:12.758Z,4.72
2023-12-21T09:36:42.109Z,4.76
2023-12-21T09:39:12.733Z,4.82
2023-12-21T09:41:49.555Z,4.75
2023-12-21T09:44:29.689Z,4.81
2023-12-21T09:46:59.149Z,4.84
2023-12-21T09:49:29.000Z,4.83
2023-12-21T09:52:00.158Z,4.73
2023-12-21T09:54:28.454Z,4.85
2023-12-21T09:56:58.252Z,4.86
2023-12-21T09:59:31.509Z,4.74
2023-12-21T10:01:59.557Z,4.84
2023-12-21T10:04:27.981Z,4.89
2023-12-21T10:06:56.016Z,4.88
2023-12-21T10:09:26.236Z,4.94
2023-12-21T10:11:54.148Z,4.92
2023-12-21T10:14:22.551Z,4.79
2023-12-21T10:16:51.056Z,4.97
2023-12-21T10:19:19.195Z,4.93
2023-12-21T10:21:50.316Z,4.85
2023-12-21T10:24:21.384Z,4.95
2023-12-21T10:26:52.807Z,5.01
2023-12-21T10:29:21.378Z,5.05
2023-12-21T10:31:52.290Z,5.17
2023-12-21T10:34:20.877Z,5.12
2023-12-21T10:36:51.232Z,5.26
2023-12-21T10:39:19.913Z,5.25
2023-12-21T10:41:47.927Z,5.18
2023-12-21T10:44:17.754Z,5.36
2023-12-21T10:46:46.632Z,5.31
2023-12-21T10:49:15.068Z,5.27
2023-12-21T10:51:45.036Z,5.38
2023-12-21T10:54:18.123Z,5.33
2023-12-21T10:56:50.785Z,5.30
2023-12-21T10:59:22.371Z,5.42
2023-12-21T11:01:51.311Z,5.42
2023-12-21T11:04:22.536Z,5.42
2023-12-21T11:06:51.707Z,5.38
2023-12-21T11:09:21.164Z,5.48
2023-12-21T11:11:49.706Z,5.51
2023-12-21T11:14:18.558Z,5.62
2023-12-21T11:16:54.865Z,5.60
2023-12-21T11:19:31.567Z,5.58
2023-12-21T11:22:00.240Z,5.64
2023-12-21T11:24:28.373Z,5.66
2023-12-21T11:27:00.489Z,5.61
2023-12-21T11:29:30.003Z,5.73
2023-12-21T11:32:01.713Z,5.71
2023-12-21T11:34:38.240Z,5.78
2023-12-21T11:37:18.560Z,5.71
2023-12-21T11:39:47.579Z,5.72
2023-12-21T11:42:15.532Z,5.77
2023-12-21T11:44:51.924Z,5.83
2023-12-21T11:47:21.413Z,5.92
2023-12-21T11:49:49.715Z,5.75
2023-12-21T11:52:27.201Z,5.92
2023-12-21T11:54:55.367Z,5.86
2023-12-21T11:57:23.477Z,5.92
2023-12-21T12:00:07.034Z,5.89
2023-12-21T12:02:36.948Z,6.02
2023-12-21T12:05:05.616Z,6.13
2023-12-21T12:07:37.726Z,5.99
2023-12-21T12:10:06.261Z,6.13
2023-12-21T12:12:37.240Z,6.16
2023-12-21T12:15:05.871Z,6.17
2023-12-21T12:17:33.894Z,6.08
2023-12-21T12:20:04.065Z,6.16
2023-12-21T12:22:35.570Z,6.19
2023-12-21T12:25:04.106Z,6.24
2023-12-21T12:27:32.694Z,6.26
2023-12-21T12:30:01.495Z,6.15
2023-12-21T12:32:35.654Z,6.24
2023-12-21T12:35:08.152Z,6.29
2023-12-21T12:37:37.350Z,6.14
2023-12-21T12:40:08.581Z,6.24
2023-12-21T12:42:37.336Z,6.29
2023-12-21T12:45:07.123Z,6.30
2023-12-21T12:47:36.466Z,6.24
2023-12-21T12:50:07.382Z,6.30
2023-12-21T12:52:41.348Z,6.20
2023-12-21T12:55:10.590Z,6.33
2023-12-21T12:57:39.359Z,6.24
2023-12-21T13:00:11.762Z,6.32
2023-12-21T13:02:40.036Z,6.28
2023-12-21T13:05:11.509Z,6.18
2023-12-21T13:07:40.413Z,6.32
2023-12-21T13:10:10.652Z,6.20
2023-12-21T13:12:38.847Z,6.17
2023-12-21T13:15:08.191Z,6.12
2023-12-21T13:17:36.462Z,6.24
2023-12-21T13:20:10.721Z,6.22
2023-12-21T13:22:47.815Z,6.38
2023-12-21T13:25:18.160Z,6.55
2023-12-21T13:27:46.617Z,6.62
2023-12-21T13:30:15.456Z,6.76
2023-12-21T13:32:46.338Z,6.74
2023-12-21T13:35:16.634Z,6.77
2023-12-21T13:37:47.602Z,6.77
2023-12-21T13:40:16.003Z,6.80
2023-12-21T13:42:45.937Z,6.80
2023-12-21T13:45:14.039Z,6.81
2023-12-21T13:47:44.990Z,6.79
2023-12-21T13:50:15.842Z,6.70
2023-12-21T13:52:45.311Z,6.72
2023-12-21T13:55:13.607Z,6.75
2023-12-21T13:57:41.728Z,6.70
2023-12-21T14:00:11.896Z,6.76
2023-12-21T14:02:39.906Z,6.75
2023-12-21T14:05:08.687Z,6.80
2023-12-21T14:07:36.882Z,6.81
2023-12-21T14:10:09.621Z,6.89
2023-12-21T14:12:37.757Z,6.86
2023-12-21T14:15:09.062Z,6.85
2023-12-21T14:17:37.188Z,6.85
2023-12-21T14:20:05.754Z,6.91
2023-12-21T14:22:33.869Z,6.94
2023-12-21T14:25:01.860Z,6.91
2023-12-21T14:27:31.252Z,6.90
2023-12-21T14:29:59.311Z,6.96
2023-12-21T14:32:27.804Z,6.92
2023-12-21T14:34:56.138Z,6.97
2023-12-21T14:37:24.238Z,6.98
2023-12-21T14:39:54.066Z,7.02
2023-12-21T14:42:22.262Z,7.05
2023-12-21T14:44:53.728Z,7.00
2023-12-21T14:47:22.086Z,7.07
2023-12-21T14:49:50.558Z,7.11
2023-12-21T14:52:18.600Z,7.07
2023-12-21T14:54:46.902Z,7.08
2023-12-21T14:57:14.950Z,7.15
2023-12-21T14:59:42.952Z,7.15
2023-12-21T15:02:12.323Z,7.23
2023-12-21T15:04:40.486Z,7.29
2023-12-21T15:07:08.801Z,7.23
2023-12-21T15:09:38.368Z,7.23
2023-12-21T15:12:06.991Z,7.27
2023-12-21T15:14:35.026Z,7.30
2023-12-21T15:17:03.623Z,7.33
2023-12-21T15:19:33.123Z,7.43
2023-12-21T15:22:01.840Z,7.34
2023-12-21T15:24:31.147Z,7.37
2023-12-21T15:27:00.278Z,7.34
2023-12-21T15:29:31.302Z,7.38
2023-12-21T15:31:59.312Z,7.44
2023-12-21T15:34:27.496Z,7.50
2023-12-21T15:36:56.882Z,7.42
2023-12-21T15:39:24.988Z,7.44
2023-12-21T15:41:53.086Z,7.55
2023-12-21T15:44:21.243Z,7.55
2023-12-21T15:46:49.283Z,7.66
2023-12-21T15:49:17.452Z,7.69
2023-12-21T15:51:45.386Z,7.77
2023-12-21T15:54:15.382Z,7.76
2023-12-21T15:56:43.753Z,7.85
2023-12-21T15:59:14.691Z,7.91
2023-12-21T16:01:43.210Z,7.86
2023-12-21T16:04:18.663Z,7.92
2023-12-21T16:06:46.619Z,7.89
2023-12-21T16:09:16.304Z,7.98
2023-12-21T16:11:44.244Z,7.98
2023-12-21T16:14:12.272Z,7.96
2023-12-21T16:16:40.353Z,8.00
2023-12-21T16:19:08.392Z,8.11
2023-12-21T16:21:36.423Z,8.04
2023-12-21T16:24:07.786Z,8.16
2023-12-21T16:26:41.634Z,8.13
2023-12-21T16:29:09.824Z,8.16
2023-12-21T16:31:38.418Z,8.22
2023-12-21T16:34:07.496Z,8.27
2023-12-21T16:36:35.447Z,8.20
2023-12-21T16:39:04.629Z,8.17
2023-12-21T16:41:32.535Z,8.23
2023-12-21T16:44:01.922Z,8.24
2023-12-21T16:46:30.170Z,8.32
2023-12-21T16:48:58.200Z,8.27
2023-12-21T16:51:27.308Z,8.34
2023-12-21T16:53:55.264Z,8.35
2023-12-21T16:56:23.305Z,8.35
2023-12-21T16:58:51.791Z,8.38
2023-12-21T17:01:21.293Z,8.34
2023-12-21T17:03:52.391Z,8.31
2023-12-21T17:06:21.374Z,8.24
2023-12-21T17:08:49.374Z,8.15
2023-12-21T17:11:17.373Z,8.16
2023-12-21T17:13:45.485Z,8.24
2023-12-21T17:16:15.255Z,8.18
2023-12-21T17:18:44.664Z,8.24
2023-12-21T17:21:12.603Z,8.32
2023-12-21T17:23:40.600Z,8.24
2023-12-21T17:26:11.773Z,8.25
2023-12-21T17:28:41.677Z,8.31
2023-12-21T17:31:10.291Z,8.24
2023-12-21T17:33:38.377Z,8.21
2023-12-21T17:36:08.153Z,8.11
2023-12-21T17:38:36.376Z,8.08
2023-12-21T17:41:04.341Z,8.11
2023-12-21T17:43:32.393Z,8.08
2023-12-21T17:46:02.397Z,7.97
2023-12-21T17:48:30.434Z,7.97
2023-12-21T17:50:58.439Z,7.89
2023-12-21T17:53:27.938Z,7.93
2023-12-21T17:55:57.980Z,7.94
2023-12-21T17:58:25.990Z,7.94
2023-12-21T18:00:54.296Z,7.85
2023-12-21T18:03:23.878Z,7.89
2023-12-21T18:05:53.187Z,8.02
2023-12-21T18:08:21.252Z,7.92
2023-12-21T18:10:50.759Z,8.03
2023-12-21T18:13:19.065Z,8.01
2023-12-21T18:15:47.514Z,8.20
2023-12-21T18:18:17.785Z,8.19
2023-12-21T18:20:45.925Z,8.30
2023-12-21T18:23:15.892Z,8.16
2023-12-21T18:25:45.055Z,8.26
2023-12-21T18:28:14.478Z,8.31
2023-12-21T18:30:42.448Z,8.39
2023-12-21T18:33:10.475Z,8.36
2023-12-21T18:35:38.896Z,8.35
2023-12-21T18:38:06.901Z,8.34
2023-12-21T18:40:34.887Z,8.37
2023-12-21T18:43:04.105Z,8.44
2023-12-21T18:45:33.383Z,8.44
2023-12-21T18:48:04.002Z,8.37
2023-12-21T18:50:32.169Z,8.30
2023-12-21T18:53:00.862Z,8.32
2023-12-21T18:55:28.910Z,8.23
2023-12-21T18:57:56.927Z,8.08
2023-12-21T19:00:24.877Z,8.03
2023-12-21T19:02:54.225Z,7.90
2023-12-21T19:05:22.568Z,7.85
2023-12-21T19:07:51.077Z,7.78
2023-12-21T19:10:19.442Z,7.72
2023-12-21T19:12:47.639Z,7.66
2023-12-21T19:15:15.730Z,7.53
2023-12-21T19:17:44.208Z,7.46
2023-12-21T19:20:14.844Z,7.35
2023-12-21T19:22:43.090Z,7.24
2023-12-21T19:25:13.346Z,7.20
2023-12-21T19:27:41.412Z,7.29
2023-12-21T19:30:11.211Z,7.12
2023-12-21T19:32:39.271Z,7.18
2023-12-21T19:35:07.501Z,7.14
2023-12-21T19:37:36.805Z,7.06
2023-12-21T19:40:05.258Z,7.01
2023-12-21T19:42:33.217Z,6.95
2023-12-21T19:45:01.254Z,5.42
2023-12-21T19:47:29.256Z,5.87
2023-12-21T19:49:57.366Z,6.05
2023-12-21T19:52:25.388Z,6.18
2023-12-21T19:54:54.753Z,6.15
2023-12-21T19:57:22.730Z,6.17
2023-12-21T19:59:50.707Z,6.30
2023-12-21T20:02:18.675Z,6.45
2023-12-21T20:04:47.102Z,6.61
2023-12-21T20:07:15.199Z,6.69
2023-12-21T20:09:43.288Z,6.75
2023-12-21T20:12:12.656Z,6.73
2023-12-21T20:14:40.740Z,6.83
2023-12-21T20:17:08.707Z,6.80
2023-12-21T20:19:36.731Z,6.67
2023-12-21T20:22:04.802Z,6.69
2023-12-21T20:24:32.754Z,6.68
2023-12-21T20:27:00.638Z,6.61
2023-12-21T20:29:30.071Z,6.73
2023-12-21T20:31:58.069Z,6.72
2023-12-21T20:34:26.088Z,6.68
2023-12-21T20:36:54.072Z,6.59
2023-12-21T20:39:22.276Z,6.71
2023-12-21T20:41:52.668Z,6.73
2023-12-21T20:44:21.046Z,6.85
2023-12-21T20:46:50.444Z,6.89
2023-12-21T20:49:18.489Z,6.94
2023-12-21T20:51:46.485Z,6.97
2023-12-21T20:54:14.589Z,6.98
2023-12-21T20:56:42.526Z,6.98
2023-12-21T20:59:10.655Z,7.06
2023-12-21T21:01:40.587Z,7.02
2023-12-21T21:04:09.987Z,7.10
2023-12-21T21:06:38.055Z,7.11
2023-12-21T21:09:09.997Z,7.11
2023-12-21T21:11:38.348Z,7.06
2023-12-21T21:14:06.377Z,6.98
2023-12-21T21:16:34.453Z,6.92
2023-12-21T21:19:02.688Z,6.86
2023-12-21T21:21:32.098Z,6.89
2023-12-21T21:24:03.332Z,6.80
2023-12-21T21:26:31.893Z,6.80
2023-12-21T21:29:03.324Z,6.85
2023-12-21T21:31:31.333Z,6.75
2023-12-21T21:33:59.356Z,6.78
2023-12-21T21:36:27.336Z,6.79
2023-12-21T21:38:56.665Z,6.89
2023-12-21T21:41:24.616Z,6.90
2023-12-21T21:43:52.740Z,6.88
2023-12-21T21:46:20.845Z,6.83
2023-12-21T21:48:48.961Z,6.88
2023-12-21T21:51:18.361Z,6.87
2023-12-21T21:53:46.636Z,6.97
2023-12-21T21:56:19.667Z,6.97
2023-12-21T21:58:47.890Z,6.93
2023-12-21T22:01:16.580Z,6.88
2023-12-21T22:03:44.603Z,6.76
2023-12-21T22:06:12.696Z,6.59
2023-12-21T22:08:40.717Z,6.53
2023-12-21T22:11:09.349Z,6.41
2023-12-21T22:13:38.729Z,6.39
2023-12-21T22:16:06.803Z,6.39
2023-12-21T22:18:34.984Z,6.46
2023-12-21T22:21:02.974Z,5.52
2023-12-21T22:23:31.148Z,3.50
2023-12-21T22:25:59.166Z,3.28
2023-12-21T22:28:27.142Z,3.31
2023-12-21T22:30:56.478Z,3.25
2023-12-21T22:33:24.518Z,3.05
2023-12-21T22:35:52.498Z,3.15
2023-12-21T22:38:20.630Z,3.21
2023-12-21T22:40:48.791Z,3.47
2023-12-21T22:43:29.511Z,3.38
2023-12-21T22:46:06.977Z,3.55
2023-12-21T22:48:35.076Z,3.65
2023-12-21T22:51:03.118Z,3.70
2023-12-21T22:53:32.594Z,3.85
2023-12-21T22:56:00.962Z,4.01
2023-12-21T22:58:29.053Z,4.14
2023-12-21T23:00:57.247Z,3.95
2023-12-21T23:03:26.770Z,3.74
2023-12-21T23:05:54.916Z,3.66
2023-12-21T23:08:22.991Z,3.58
2023-12-21T23:10:53.112Z,3.04
2023-12-21T23:13:21.251Z,3.00
2023-12-21T23:15:49.090Z,3.07
2023-12-21T23:18:17.195Z,3.02
2023-12-21T23:20:46.642Z,3.13
2023-12-21T23:23:14.676Z,3.03
2023-12-21T23:25:42.933Z,2.99
2023-12-21T23:28:10.941Z,3.04
2023-12-21T23:30:38.912Z,3.04
2023-12-21T23:33:07.009Z,3.04
2023-12-21T23:35:35.133Z,3.17
2023-12-21T23:38:04.851Z,3.14
2023-12-21T23:40:32.878Z,3.10
2023-12-21T23:43:00.902Z,3.10
2023-12-21T23:45:28.822Z,3.32
2023-12-21T23:47:56.918Z,3.09
2023-12-21T23:50:24.948Z,3.31
2023-12-21T23:52:53.079Z,3.22
2023-12-21T23:55:22.509Z,3.27
2023-12-21T23:57:50.767Z,3.32
